createdAt,value
2023-01-07T09:37:34.733Z,6.27
2023-01-07T09:41:32.028Z,6.58
2023-01-07T09:42:56.674Z,6.74
2023-01-07T09:44:15.329Z,6.88
2023-01-07T09:45:21.016Z,7.14
2023-01-07T09:46:23.441Z,7.40
2023-01-07T09:47:29.350Z,8.23
2023-01-07T09:48:42.017Z,8.47
2023-01-07T09:49:47.538Z,8.91
2023-01-07T09:51:45.618Z,10.44
2023-01-07T09:52:51.927Z,10.71
2023-01-07T09:53:56.940Z,12.70
2023-01-07T09:55:25.104Z,12.79
2023-01-07T09:56:32.535Z,13.94
2023-01-07T09:57:34.147Z,13.58
2023-01-07T09:58:37.883Z,13.53
2023-01-07T09:59:39.469Z,12.78
2023-01-07T10:00:55.118Z,12.92
2023-01-07T10:02:17.912Z,13.57
2023-01-07T10:03:44.654Z,11.96
2023-01-07T10:05:24.757Z,12.42
2023-01-07T10:06:49.317Z,12.49
2023-01-07T10:08:29.206Z,11.78
2023-01-07T10:09:50.525Z,10.74
2023-01-07T10:10:58.538Z,9.90
2023-01-07T10:12:17.709Z,9.26
2023-01-07T10:13:24.953Z,9.23
2023-01-07T10:14:45.350Z,9.28
2023-01-07T10:15:55.673Z,8.89
2023-01-07T10:17:21.871Z,8.91
2023-01-07T10:18:38.627Z,8.72
2023-01-07T10:19:57.126Z,8.74
2023-01-07T10:21:24.609Z,8.52
2023-01-07T10:22:32.711Z,8.15
2023-01-07T10:23:38.566Z,8.05
2023-01-07T10:24:44.882Z,8.00
2023-01-07T10:25:50.410Z,7.98
2023-01-07T10:26:56.035Z,8.32
2023-01-07T10:28:03.308Z,8.53
2023-01-07T10:29:40.745Z,9.28
2023-01-07T10:30:46.017Z,9.78
2023-01-07T10:31:50.437Z,10.62
2023-01-07T10:33:04.397Z,9.50
2023-01-07T10:34:14.368Z,9.75
2023-01-07T10:35:20.453Z,9.71
2023-01-07T10:36:32.437Z,9.19
2023-01-07T10:37:37.372Z,9.34
2023-01-07T10:38:42.897Z,9.17
2023-01-07T10:39:59.722Z,11.22
2023-01-07T10:41:12.866Z,12.58
2023-01-07T10:42:23.983Z,13.48
2023-01-07T10:43:44.178Z,13.26
2023-01-07T10:45:18.152Z,12.43
2023-01-07T10:46:41.187Z,13.25
2023-01-07T10:48:01.444Z,12.67
2023-01-07T10:49:16.015Z,11.52
2023-01-07T10:50:24.109Z,10.28
2023-01-07T10:52:10.663Z,10.25
2023-01-07T10:53:33.531Z,11.23
2023-01-07T10:54:50.171Z,13.09
2023-01-07T10:56:09.503Z,13.21
2023-01-07T10:57:18.351Z,14.07
2023-01-07T10:58:19.818Z,14.45
2023-01-07T10:59:22.587Z,14.86
2023-01-07T11:00:25.083Z,14.74
2023-01-07T11:01:41.257Z,13.79
2023-01-07T11:02:50.604Z,14.98
2023-01-07T11:03:54.111Z,15.06
2023-01-07T11:04:57.058Z,15.06
2023-01-07T11:06:04.753Z,16.26
2023-01-07T11:07:13.778Z,16.25
2023-01-07T11:08:38.740Z,15.88
2023-01-07T11:09:43.823Z,15.46
2023-01-07T11:10:45.246Z,15.21
2023-01-07T11:11:48.234Z,14.67
2023-01-07T11:12:52.338Z,14.19
2023-01-07T11:14:26.622Z,14.35
2023-01-07T11:15:50.498Z,14.63
2023-01-07T11:16:56.894Z,15.01
2023-01-07T11:18:31.866Z,15.25
2023-01-07T11:19:52.523Z,15.52
2023-01-07T11:20:55.863Z,16.20
2023-01-07T11:21:57.255Z,15.76
2023-01-07T11:22:58.803Z,14.51
2023-01-07T11:24:01.807Z,13.93
2023-01-07T11:25:28.364Z,13.57
2023-01-07T11:26:32.872Z,14.13
2023-01-07T11:27:34.946Z,14.55
2023-01-07T11:28:40.765Z,14.90
2023-01-07T11:29:56.012Z,14.17
2023-01-07T11:31:00.951Z,13.90
2023-01-07T11:32:03.903Z,13.45
2023-01-07T11:33:07.069Z,13.39
2023-01-07T11:34:20.159Z,13.45
2023-01-07T11:35:23.281Z,13.88
2023-01-07T11:36:42.303Z,15.00
2023-01-07T11:37:46.631Z,15.32
2023-01-07T11:38:48.121Z,15.60
2023-01-07T11:40:01.395Z,15.40
2023-01-07T11:41:05.123Z,14.82
2023-01-07T11:42:37.783Z,14.32
2023-01-07T11:43:40.679Z,14.80
2023-01-07T11:44:42.198Z,14.42
2023-01-07T11:46:20.254Z,14.63
2023-01-07T11:47:18.021Z,15.45
2023-01-07T11:48:36.646Z,15.52
2023-01-07T11:49:44.388Z,15.55
2023-01-07T11:51:05.428Z,15.01
2023-01-07T11:52:16.904Z,15.02
2023-01-07T11:53:18.230Z,15.23
2023-01-07T11:54:26.136Z,14.32
2023-01-07T11:55:28.749Z,13.45
2023-01-07T11:56:33.178Z,13.65
2023-01-07T11:57:34.583Z,13.39
2023-01-07T11:58:44.665Z,13.30
2023-01-07T11:59:46.254Z,13.01
2023-01-07T12:01:12.888Z,13.44
2023-01-07T12:02:26.478Z,13.52
2023-01-07T12:03:27.981Z,13.73
2023-01-07T12:04:35.793Z,14.10
2023-01-07T12:05:39.215Z,13.39
2023-01-07T12:06:44.342Z,13.22
2023-01-07T12:07:51.474Z,13.34
2023-01-07T12:09:15.013Z,12.47
2023-01-07T12:10:26.894Z,13.29
2023-01-07T12:11:34.433Z,13.52
2023-01-07T12:12:39.200Z,13.15
2023-01-07T12:13:47.930Z,13.04
2023-01-07T12:14:49.687Z,12.99
2023-01-07T12:15:58.260Z,12.81
2023-01-07T12:17:17.076Z,12.81
2023-01-07T12:18:41.350Z,13.25
2023-01-07T12:20:13.294Z,11.95
2023-01-07T12:21:24.082Z,12.03
2023-01-07T12:22:39.827Z,12.21
2023-01-07T12:23:52.899Z,12.64
2023-01-07T12:25:21.948Z,12.26
2023-01-07T12:26:35.802Z,12.63
2023-01-07T12:27:46.343Z,12.69
2023-01-07T12:28:50.767Z,12.61
2023-01-07T12:30:20.638Z,12.73
2023-01-07T12:31:49.493Z,13.06
2023-01-07T12:33:00.184Z,13.14
2023-01-07T12:34:22.356Z,13.65
2023-01-07T12:35:35.329Z,14.11
2023-01-07T12:36:54.951Z,13.65
2023-01-07T12:38:09.055Z,13.10
2023-01-07T12:39:27.022Z,12.36
2023-01-07T12:40:49.718Z,12.37
2023-01-07T12:43:30.900Z,12.39
2023-01-07T12:44:34.716Z,12.43
2023-01-07T12:45:54.364Z,12.90
2023-01-07T12:47:32.010Z,12.47
2023-01-07T12:48:36.893Z,12.39
2023-01-07T12:50:02.755Z,12.87
2023-01-07T12:51:14.264Z,13.04
2023-01-07T12:52:29.888Z,12.76
2023-01-07T12:54:12.876Z,12.66
2023-01-07T12:55:22.296Z,12.77
2023-01-07T12:56:32.980Z,12.67
2023-01-07T12:57:37.918Z,12.67
2023-01-07T12:59:45.960Z,12.49
2023-01-07T13:00:46.634Z,12.35
2023-01-07T13:02:12.882Z,12.20
2023-01-07T13:03:28.212Z,11.92
2023-01-07T13:04:42.974Z,12.29
2023-01-07T13:06:06.822Z,12.32
2023-01-07T13:07:21.151Z,12.69
2023-01-07T13:08:43.354Z,13.21
2023-01-07T13:09:59.737Z,12.95
2023-01-07T13:11:14.886Z,12.40
2023-01-07T13:12:46.518Z,12.23
2023-01-07T13:13:53.182Z,12.35
2023-01-07T13:14:58.869Z,12.86
2023-01-07T13:16:00.853Z,12.93
2023-01-07T13:17:16.142Z,13.09
2023-01-07T13:18:19.841Z,12.60
2023-01-07T13:19:21.484Z,12.71
2023-01-07T13:20:50.865Z,12.44
2023-01-07T13:21:52.670Z,12.44
2023-01-07T13:22:56.480Z,12.63
2023-01-07T13:24:56.403Z,12.58
2023-01-07T13:25:53.898Z,11.75
2023-01-07T13:27:23.628Z,12.07
2023-01-07T13:28:52.749Z,12.94
2023-01-07T13:30:00.219Z,13.24
2023-01-07T13:31:26.676Z,13.12
2023-01-07T13:32:50.060Z,13.07
2023-01-07T13:34:03.614Z,12.61
2023-01-07T13:35:36.699Z,12.63
2023-01-07T13:37:03.602Z,12.24
2023-01-07T13:38:19.032Z,12.43
2023-01-07T13:39:23.348Z,12.39
2023-01-07T13:41:05.179Z,12.42
2023-01-07T13:42:27.214Z,12.84
2023-01-07T13:43:49.725Z,12.57
2023-01-07T13:44:57.024Z,13.00
2023-01-07T13:46:03.093Z,12.98
2023-01-07T13:47:05.468Z,13.08
2023-01-07T13:48:18.908Z,12.72
2023-01-07T13:49:25.547Z,12.81
2023-01-07T13:50:38.269Z,12.61
2023-01-07T13:51:39.769Z,12.40
2023-01-07T13:52:45.808Z,12.18
2023-01-07T13:53:47.509Z,12.13
2023-01-07T13:54:48.892Z,12.27
2023-01-07T13:55:50.739Z,12.17
2023-01-07T13:56:52.564Z,12.31
2023-01-07T13:57:53.916Z,12.08
2023-01-07T13:58:56.969Z,11.93
2023-01-07T14:00:01.508Z,12.21
2023-01-07T14:01:16.240Z,12.24
2023-01-07T14:02:29.338Z,12.00
2023-01-07T14:03:34.486Z,12.10
2023-01-07T14:04:48.175Z,12.13
2023-01-07T14:05:49.622Z,12.49
2023-01-07T14:06:52.558Z,12.39
2023-01-07T14:08:02.310Z,12.33
2023-01-07T14:09:06.645Z,12.22
2023-01-07T14:10:37.613Z,12.26
2023-01-07T14:12:07.661Z,12.30
2023-01-07T14:13:27.223Z,12.15
2023-01-07T14:14:49.435Z,12.62
2023-01-07T14:16:14.921Z,12.46
2023-01-07T14:17:40.207Z,11.80
2023-01-07T14:18:53.464Z,12.08
2023-01-07T14:20:20.467Z,12.46
2023-01-07T14:21:35.255Z,12.32
2023-01-07T14:23:19.944Z,12.15
2023-01-07T14:24:51.694Z,12.39
2023-01-07T14:26:08.295Z,12.46
2023-01-07T14:27:58.398Z,12.31
2023-01-07T14:29:40.735Z,12.46
2023-01-07T14:30:44.940Z,11.88
2023-01-07T14:31:46.616Z,11.98
2023-01-07T14:33:17.777Z,12.32
2023-01-07T14:34:26.645Z,12.53
2023-01-07T14:35:38.359Z,12.74
2023-01-07T14:37:01.565Z,12.73
2023-01-07T14:38:28.051Z,13.15
2023-01-07T14:39:44.166Z,12.65
2023-01-07T14:40:45.483Z,12.67
2023-01-07T14:42:18.985Z,12.65
2023-01-07T14:43:43.286Z,12.66
2023-01-07T14:44:51.252Z,12.36
2023-01-07T14:45:54.413Z,12.39
2023-01-07T14:46:56.120Z,12.19
2023-01-07T14:47:57.849Z,12.00
2023-01-07T14:49:02.215Z,12.16
2023-01-07T14:50:25.509Z,11.59
2023-01-07T14:51:57.638Z,11.77
2023-01-07T14:53:29.474Z,11.89
2023-01-07T14:55:00.756Z,12.02
2023-01-07T14:56:09.407Z,11.57
2023-01-07T14:57:46.622Z,11.68
2023-01-07T14:59:07.895Z,11.92
2023-01-07T15:00:41.050Z,11.58
2023-01-07T15:01:54.403Z,11.60
2023-01-07T15:03:17.927Z,11.65
2023-01-07T15:04:51.985Z,11.63
2023-01-07T15:06:46.983Z,11.47
2023-01-07T15:07:52.132Z,11.13
2023-01-07T15:09:21.331Z,11.35
2023-01-07T15:10:44.801Z,10.88
2023-01-07T15:12:06.450Z,10.31
2023-01-07T15:13:34.168Z,10.16
2023-01-07T15:15:02.297Z,9.76
2023-01-07T15:16:11.359Z,9.76
2023-01-07T15:17:15.034Z,9.64
2023-01-07T15:18:16.570Z,9.60
2023-01-07T15:19:18.102Z,9.55
2023-01-07T15:20:19.583Z,9.32
2023-01-07T15:21:41.404Z,9.42
2023-01-07T15:22:51.860Z,9.59
2023-01-07T15:24:15.025Z,9.70
2023-01-07T15:25:34.718Z,9.61
2023-01-07T15:26:38.679Z,9.66
2023-01-07T15:28:15.697Z,9.83
2023-01-07T15:29:43.364Z,9.69
2023-01-07T15:30:58.229Z,9.29
2023-01-07T15:32:08.709Z,9.20
2023-01-07T15:33:41.065Z,8.99
2023-01-07T15:34:43.755Z,8.92
2023-01-07T15:35:46.167Z,8.81
2023-01-07T15:36:52.180Z,8.76
2023-01-07T15:37:53.764Z,8.68
2023-01-07T15:38:57.730Z,8.68
2023-01-07T15:39:59.442Z,8.56
2023-01-07T15:41:01.020Z,8.53
